Time;durP1;ratioP1;P1;durP2;ratioP2;P2;SDS_P1;SDS_P2;PMS_P1;PMS_P2;Temp;Humidity;BMP_temperature;BMP_pressure;BME280_temperature;BME280_humidity;BME280_pressure;Samples;Min_cycle;Max_cycle;Signal;HPM_P1;HPM_P2
2022/09/20 00:00:12;;;;;;;4.22;2.20;;;;;;;11.74;60.49;97379.53;6106237;29;20066;-69
2022/09/20 00:03:17;;;;;;;3.07;1.90;;;;;;;11.94;57.89;97391.53;6106298;29;20059;-69
2022/09/20 00:06:27;;;;;;;5.72;2.60;;;;;;;12.23;56.68;97386.22;6106054;29;20052;-69
2022/09/20 00:09:33;;;;;;;4.50;1.92;;;;;;;12.40;54.46;97378.09;6106193;29;20051;-69
2022/09/20 00:12:35;;;;;;;4.18;1.92;;;;;;;12.74;51.63;97381.19;6105811;29;20052;-69
2022/09/20 00:15:42;;;;;;;3.33;2.15;;;;;;;12.96;50.09;97375.31;6105233;29;20060;-68
2022/09/20 00:18:48;;;;;;;3.10;1.40;;;;;;;12.84;50.13;97376.97;6105892;29;20087;-68
2022/09/20 00:21:50;;;;;;;4.35;1.80;;;;;;;12.78;50.08;97372.09;6105780;29;20111;-68
2022/09/20 00:24:53;;;;;;;5.03;1.67;;;;;;;12.81;49.43;97362.19;6105556;29;20054;-70
2022/09/20 00:27:55;;;;;;;3.40;1.67;;;;;;;12.84;49.28;97361.13;6105359;29;20048;-70
2022/09/20 00:30:59;;;;;;;2.53;1.63;;;;;;;12.90;48.56;97366.00;6105820;29;20426;-69
2022/09/20 00:37:24;;;;;;;3.70;1.95;;;;;;;12.58;49.40;97368.97;6105436;29;20501;-69
2022/09/20 00:40:29;;;;;;;4.03;2.10;;;;;;;12.46;50.18;97363.66;6105340;29;20514;-70
2022/09/20 00:43:40;;;;;;;4.68;3.00;;;;;;;12.32;52.65;97364.53;6105397;29;20048;-69
2022/09/20 00:46:44;;;;;;;6.47;3.88;;;;;;;12.10;53.88;97371.16;6105268;29;20052;-69
2022/09/20 00:49:57;;;;;;;7.93;4.30;;;;;;;12.03;55.17;97369.00;6105116;29;20054;-69
2022/09/20 00:53:08;;;;;;;9.25;4.78;;;;;;;11.92;55.99;97364.44;6105208;29;20130;-70
2022/09/20 00:56:21;;;;;;;7.03;4.82;;;;;;;11.75;56.79;97357.53;6105423;29;20044;-70
2022/09/20 00:59:34;;;;;;;7.95;4.47;;;;;;;11.59;57.48;97365.50;6103584;29;20419;-71
2022/09/20 01:02:39;;;;;;;5.75;3.42;;;;;;;11.51;57.09;97375.69;6104975;29;20414;-69
2022/09/20 01:05:43;;;;;;;6.47;4.18;;;;;;;11.44;57.41;97366.47;6101519;29;20056;-70
2022/09/20 01:08:49;;;;;;;7.82;3.25;;;;;;;11.49;56.85;97367.00;6104965;29;20471;-70
2022/09/20 01:11:56;;;;;;;5.80;2.38;;;;;;;11.56;54.52;97355.16;6104985;29;20423;-70
2022/09/20 01:14:59;;;;;;;3.53;2.00;;;;;;;11.96;50.91;97358.00;6104645;29;20071;-70
2022/09/20 01:18:06;;;;;;;7.03;3.22;;;;;;;12.05;52.38;97357.41;6104881;29;20273;-69
2022/09/20 01:21:11;;;;;;;6.68;3.25;;;;;;;12.01;53.04;97355.09;6104641;29;20048;-69
2022/09/20 01:24:22;;;;;;;10.75;4.72;;;;;;;11.87;54.20;97356.78;6104509;29;20200;-69
2022/09/20 01:27:23;;;;;;;3.83;3.40;;;;;;;11.66;55.21;97358.06;6104583;29;20059;-69
2022/09/20 01:30:36;;;;;;;8.90;3.55;;;;;;;11.43;56.88;97356.84;6104304;29;20112;-69
2022/09/20 01:33:49;;;;;;;9.17;3.33;;;;;;;11.26;57.58;97364.91;6104293;29;20417;-69
2022/09/20 01:36:59;;;;;;;5.60;2.88;;;;;;;11.06;57.68;97361.69;6104403;29;20484;-69
2022/09/20 01:40:25;;;;;;;9.13;3.25;;;;;;;10.89;58.34;97353.91;6104242;29;20044;-69
2022/09/20 01:43:50;;;;;;;5.05;2.95;;;;;;;10.82;58.49;97369.25;6104255;29;20056;-69
2022/09/20 01:47:12;;;;;;;5.75;3.03;;;;;;;10.76;57.86;97362.53;6103737;29;20051;-70
2022/09/20 01:50:49;;;;;;;7.38;4.15;;;;;;;10.73;58.36;97375.88;6103467;29;20048;-69
2022/09/20 01:54:19;;;;;;;12.45;4.38;;;;;;;10.64;58.94;97370.28;6055463;29;20053;-70
2022/09/20 01:57:36;;;;;;;11.35;4.18;;;;;;;10.53;59.42;97374.38;6103591;29;20044;-69
2022/09/20 02:01:14;;;;;;;8.02;2.28;;;;;;;10.72;56.24;97363.63;6103606;29;20071;-70
2022/09/20 02:04:33;;;;;;;70.00;28.40;;;;;;;10.95;56.72;97374.63;6103446;29;20040;-69
2022/09/20 02:08:02;;;;;;;82.57;36.38;;;;;;;10.92;57.61;97374.81;6103400;29;20040;-69
2022/09/20 02:11:18;;;;;;;73.07;30.17;;;;;;;10.81;58.09;97374.56;6103439;29;20055;-69
2022/09/20 02:15:12;;;;;;;72.15;29.63;;;;;;;10.72;58.59;97368.91;6103084;29;20052;-69
2022/09/20 02:18:30;;;;;;;73.30;34.05;;;;;;;10.71;58.72;97382.16;6059823;29;20601;-69
2022/09/20 02:22:10;;;;;;;85.22;37.17;;;;;;;10.70;58.75;97381.31;6103292;29;20131;-70
2022/09/20 02:25:40;;;;;;;70.65;27.83;;;;;;;10.68;58.91;97385.81;6102968;29;20040;-69
2022/09/20 02:28:54;;;;;;;30.48;11.90;;;;;;;10.69;57.89;97379.59;6102971;29;20076;-69
2022/09/20 02:32:26;;;;;;;41.43;17.03;;;;;;;10.86;56.78;97381.28;6102808;29;20040;-69
2022/09/20 02:36:23;;;;;;;10.63;4.70;;;;;;;11.15;53.97;97389.25;6101856;29;20417;-68
2022/09/20 02:39:32;;;;;;;8.90;4.55;;;;;;;11.61;49.98;97384.72;6077121;29;20044;-69
2022/09/20 02:42:46;;;;;;;6.28;3.47;;;;;;;11.81;48.88;97385.31;6102451;29;20511;-69
2022/09/20 02:46:28;;;;;;;7.32;3.00;;;;;;;11.98;48.08;97382.50;6101667;29;20055;-70
2022/09/20 02:49:51;;;;;;;3.17;2.10;;;;;;;12.37;45.99;97386.22;6087278;29;20044;-70
2022/09/20 02:53:04;;;;;;;8.50;2.80;;;;;;;12.45;45.44;97383.91;6102417;29;20107;-68
2022/09/20 02:56:26;;;;;;;3.63;1.90;;;;;;;12.58;44.90;97392.72;6102317;29;20052;-68
2022/09/20 02:59:52;;;;;;;5.13;1.90;;;;;;;12.65;44.67;97393.16;6102562;29;20194;-69
2022/09/20 03:03:20;;;;;;;4.68;2.05;;;;;;;12.72;44.49;97388.34;6101955;29;20048;-69
2022/09/20 03:06:54;;;;;;;3.53;1.85;;;;;;;12.77;44.54;97396.84;6102080;29;20062;-69
2022/09/20 03:10:13;;;;;;;3.45;2.03;;;;;;;12.80;44.74;97384.25;6101684;29;20063;-69
2022/09/20 03:13:20;;;;;;;4.55;1.80;;;;;;;12.88;44.87;97398.75;6102083;29;20074;-69
2022/09/20 03:16:27;;;;;;;4.35;2.35;;;;;;;12.92;44.54;97401.09;6101504;29;20049;-69
2022/09/20 03:19:40;;;;;;;3.78;1.85;;;;;;;13.05;44.22;97401.16;6100991;29;20055;-69
2022/09/20 03:22:57;;;;;;;3.08;1.58;;;;;;;13.09;44.38;97401.78;6101980;29;20135;-68
2022/09/20 03:26:02;;;;;;;4.13;1.90;;;;;;;13.28;44.33;97410.22;6101376;29;20036;-69
2022/09/20 03:29:25;;;;;;;4.68;1.80;;;;;;;13.28;44.86;97407.56;6101273;29;20046;-69
2022/09/20 03:32:29;;;;;;;9.90;1.92;;;;;;;13.34;45.14;97412.44;6097712;29;20052;-68
2022/09/20 03:35:42;;;;;;;3.97;1.63;;;;;;;13.33;45.35;97408.06;6101691;29;20491;-68
2022/09/20 03:39:20;;;;;;;5.85;1.58;;;;;;;13.44;44.97;97405.56;6101417;29;20530;-68
2022/09/20 03:42:28;;;;;;;2.53;1.42;;;;;;;13.55;44.62;97409.28;6101247;29;20534;-68
2022/09/20 03:46:05;;;;;;;6.90;1.92;;;;;;;13.69;44.75;97406.53;6100200;29;20139;-69
2022/09/20 03:49:51;;;;;;;6.03;1.83;;;;;;;13.76;45.00;97409.59;6101347;29;20048;-69
2022/09/20 03:53:31;;;;;;;2.53;1.50;;;;;;;13.81;45.10;97410.97;6052146;29;20140;-73
2022/09/20 03:56:53;;;;;;;5.20;2.05;;;;;;;14.07;44.54;97416.25;6060375;29;20067;-69
2022/09/20 04:00:19;;;;;;;3.42;1.88;;;;;;;14.15;44.29;97408.59;6101348;29;20509;-69
2022/09/20 04:03:45;;;;;;;10.23;1.73;;;;;;;14.30;44.11;97409.34;6101412;29;20036;-69
2022/09/20 04:07:20;;;;;;;5.20;1.67;;;;;;;14.37;43.57;97418.50;6101377;29;20494;-69
2022/09/20 04:10:40;;;;;;;;;;;;;;;14.41;43.47;97422.66;6086165;29;20525;-70
2022/09/20 04:13:54;;;;;;;3.30;1.73;;;;;;;14.59;42.40;97423.16;6101032;29;19923;-69
2022/09/20 04:17:16;;;;;;;2.13;1.45;;;;;;;14.74;41.92;97422.03;6101445;29;20497;-69
2022/09/20 04:20:33;;;;;;;4.03;1.40;;;;;;;14.94;41.71;97427.66;6101331;29;20453;-69
2022/09/20 04:23:52;;;;;;;2.08;1.40;;;;;;;15.04;40.81;97423.41;6101600;29;20136;-70
2022/09/20 04:27:11;;;;;;;5.70;1.80;;;;;;;15.25;39.96;97426.25;6101167;29;20520;-69
2022/09/20 04:30:29;;;;;;;2.03;1.55;;;;;;;15.30;40.22;97429.41;6100976;29;20514;-70
2022/09/20 04:33:38;;;;;;;1.88;1.40;;;;;;;15.41;39.14;97431.25;6100043;29;20044;-70
2022/09/20 04:36:57;;;;;;;3.63;1.30;;;;;;;15.56;38.30;97440.69;6100990;29;20048;-70
2022/09/20 04:40:21;;;;;;;2.35;1.30;;;;;;;15.76;37.44;97441.00;6103214;29;20048;-70
2022/09/20 04:43:34;;;;;;;4.72;1.30;;;;;;;15.81;37.21;97449.47;6105250;29;20055;-69
2022/09/20 04:46:41;;;;;;;3.30;1.50;;;;;;;15.98;36.78;97441.03;6105305;29;20055;-71
2022/09/20 04:50:22;;;;;;;3.55;1.30;;;;;;;16.05;36.95;97447.56;6105131;29;20414;-70
2022/09/20 04:53:40;;;;;;;3.25;1.20;;;;;;;16.07;37.13;97437.66;6105242;29;20146;-70
2022/09/20 04:56:56;;;;;;;5.22;1.10;;;;;;;16.40;35.63;97451.91;6104765;29;20051;-69
2022/09/20 05:00:09;;;;;;;1.63;0.90;;;;;;;16.56;35.17;97447.06;6104930;29;20060;-70
2022/09/20 05:03:31;;;;;;;2.58;1.30;;;;;;;16.80;34.78;97454.06;6104987;29;20467;-70
2022/09/20 05:07:02;;;;;;;1.50;1.02;;;;;;;16.87;34.88;97446.44;6104315;29;20188;-68
2022/09/20 05:10:14;;;;;;;2.92;0.95;;;;;;;17.09;34.21;97449.03;6104558;29;20044;-70
2022/09/20 05:13:37;;;;;;;2.28;1.55;;;;;;;17.36;33.41;97459.22;6103572;29;20064;-70
2022/09/20 05:16:44;;;;;;;2.85;1.08;;;;;;;17.51;32.70;97452.59;6104624;29;20047;-70
2022/09/20 05:20:04;;;;;;;2.53;1.10;;;;;;;17.74;31.90;97455.13;6104557;29;20044;-70
2022/09/20 05:23:33;;;;;;;2.08;1.10;;;;;;;18.00;31.60;97454.78;6104660;29;20059;-69
2022/09/20 05:27:03;;;;;;;3.28;1.15;;;;;;;18.27;30.92;97447.06;6103807;29;20055;-69
2022/09/20 05:30:10;;;;;;;2.97;1.15;;;;;;;21.39;27.50;97453.69;6104179;29;20207;-69
2022/09/20 05:33:19;;;;;;;3.10;1.05;;;;;;;27.00;21.88;97464.97;6104334;29;20108;-69
2022/09/20 05:36:37;;;;;;;1.80;0.70;;;;;;;31.45;17.92;97472.16;6104011;29;20044;-69
2022/09/20 05:40:11;;;;;;;1.13;0.80;;;;;;;35.04;14.05;97475.03;6103986;29;20044;-69
2022/09/20 05:43:25;;;;;;;1.25;0.88;;;;;;;37.05;12.15;97481.88;6102662;29;20052;-69
2022/09/20 05:46:30;;;;;;;1.27;0.90;;;;;;;39.27;11.45;97489.06;6103860;29;20047;-69
2022/09/20 05:49:44;;;;;;;1.73;0.70;;;;;;;40.73;10.21;97488.75;6103290;29;20502;-69
2022/09/20 05:52:58;;;;;;;1.90;0.77;;;;;;;42.53;9.52;97472.88;6102482;29;20048;-69
2022/09/20 05:56:08;;;;;;;1.85;1.10;;;;;;;42.94;8.47;97479.94;6103592;29;20052;-68
2022/09/20 05:59:33;;;;;;;2.42;0.75;;;;;;;43.72;8.41;97476.75;6103651;29;20044;-68
2022/09/20 06:02:47;;;;;;;3.75;2.90;;;;;;;43.70;8.18;97470.69;6103505;29;20143;-67
2022/09/20 06:06:13;;;;;;;3.40;1.00;;;;;;;44.95;7.58;97465.53;6103631;29;20426;-68
2022/09/20 06:09:48;;;;;;;1.80;0.70;;;;;;;45.79;7.03;97472.69;6101913;29;20151;-68
2022/09/20 06:13:13;;;;;;;1.63;0.40;;;;;;;46.03;6.79;97466.84;6102998;29;20414;-68
2022/09/20 06:16:56;;;;;;;1.35;0.50;;;;;;;46.18;6.59;97460.91;6102933;29;20482;-68
2022/09/20 06:20:15;;;;;;;2.60;1.05;;;;;;;46.52;6.01;97456.72;6103083;29;20043;-69
2022/09/20 06:23:20;;;;;;;1.13;0.52;;;;;;;46.67;5.87;97459.09;6102877;29;20040;-68
2022/09/20 06:26:34;;;;;;;0.95;0.60;;;;;;;46.11;5.98;97441.03;6102749;29;20138;-68
2022/09/20 06:29:49;;;;;;;0.60;0.40;;;;;;;46.09;6.08;97444.16;6102990;29;20052;-67
2022/09/20 06:32:56;;;;;;;1.52;0.60;;;;;;;46.42;5.92;97443.88;6103210;29;20036;-69
2022/09/20 06:43:21;;;;;;;0.73;0.30;;;;;;;49.14;4.53;97452.91;6101044;29;20051;-68
2022/09/20 06:46:28;;;;;;;1.17;0.30;;;;;;;47.40;4.45;97450.34;6102274;29;20048;-68
2022/09/20 06:49:35;;;;;;;1.00;0.30;;;;;;;46.32;5.11;97441.38;6102011;29;20449;-68
2022/09/20 06:52:44;;;;;;;2.50;0.80;;;;;;;47.29;4.47;97451.81;6102077;29;20075;-69
2022/09/20 06:55:53;;;;;;;1.83;0.40;;;;;;;47.11;4.40;97442.56;6102171;29;20040;-69
2022/09/20 06:58:59;;;;;;;1.88;0.50;;;;;;;47.60;4.38;97433.00;6101786;29;20068;-69
2022/09/20 07:02:07;;;;;;;1.02;0.30;;;;;;;47.26;3.92;97430.16;6101226;29;20062;-69
2022/09/20 07:05:20;;;;;;;0.65;0.35;;;;;;;46.44;4.06;97438.00;6101876;29;20414;-68
2022/09/20 07:08:27;;;;;;;0.70;0.40;;;;;;;46.58;4.02;97433.16;6100882;29;20048;-68
2022/09/20 07:11:33;;;;;;;0.60;0.35;;;;;;;47.18;3.62;97427.03;6101734;29;20048;-69
2022/09/20 07:14:36;;;;;;;1.13;0.40;;;;;;;47.42;3.94;97428.56;6101784;29;20407;-69
2022/09/20 07:17:43;;;;;;;0.32;0.32;;;;;;;47.16;3.60;97426.53;6101871;29;20565;-69
2022/09/20 07:20:46;;;;;;;1.02;0.30;;;;;;;46.18;3.95;97410.84;6101740;29;20051;-68
2022/09/20 07:23:54;;;;;;;0.88;0.30;;;;;;;46.12;3.62;97409.31;6101767;29;20040;-68
2022/09/20 07:27:03;;;;;;;1.75;0.30;;;;;;;46.61;3.77;97410.25;6101704;29;20052;-68
2022/09/20 07:30:09;;;;;;;1.85;0.40;;;;;;;47.01;3.57;97405.50;6101594;29;20044;-70
2022/09/20 07:33:18;;;;;;;1.05;0.35;;;;;;;46.43;3.86;97408.53;6101678;29;20044;-70
2022/09/20 07:36:20;;;;;;;0.75;0.25;;;;;;;46.95;3.75;97405.97;6101367;29;20048;-68
2022/09/20 07:39:22;;;;;;;1.63;0.40;;;;;;;46.89;3.86;97410.88;6100934;29;20061;-68
2022/09/20 07:42:23;;;;;;;0.82;0.40;;;;;;;46.57;3.86;97401.72;6101252;29;20122;-69
2022/09/20 07:45:32;;;;;;;1.45;0.43;;;;;;;46.44;3.90;97411.00;6101360;29;20048;-69
2022/09/20 07:48:37;;;;;;;0.90;0.30;;;;;;;45.90;3.67;97402.63;6101504;29;20044;-69
2022/09/20 07:51:43;;;;;;;1.35;0.20;;;;;;;47.11;3.48;97410.00;6101439;29;20196;-69
2022/09/20 07:54:46;;;;;;;1.52;0.40;;;;;;;47.39;3.02;97418.03;6101349;29;20540;-69
2022/09/20 07:57:55;;;;;;;0.55;0.20;;;;;;;47.35;3.08;97417.88;6101241;29;20537;-69
2022/09/20 08:01:03;;;;;;;0.17;0.10;;;;;;;46.56;3.58;97396.47;6101549;29;20052;-69
2022/09/20 08:04:09;;;;;;;0.60;0.40;;;;;;;45.76;3.39;97390.72;6101256;29;20070;-69
2022/09/20 08:07:16;;;;;;;0.40;0.30;;;;;;;45.80;3.18;97386.16;6100940;29;20088;-69
2022/09/20 08:10:17;;;;;;;0.63;0.30;;;;;;;45.30;3.34;97382.59;6101210;29;20044;-68
2022/09/20 08:13:24;;;;;;;0.30;0.10;;;;;;;44.49;3.70;97392.31;6102124;29;20437;-69
2022/09/20 08:16:35;;;;;;;0.47;0.30;;;;;;;45.02;3.62;97386.25;6105776;29;20043;-69
2022/09/20 08:19:39;;;;;;;1.42;0.32;;;;;;;45.40;3.52;97387.94;6106045;29;20492;-69
2022/09/20 08:22:42;;;;;;;0.30;0.20;;;;;;;45.32;3.43;97378.38;6105670;29;20514;-68
2022/09/20 08:25:47;;;;;;;0.68;0.30;;;;;;;45.42;3.35;97383.72;6105809;29;20043;-69
2022/09/20 08:28:53;;;;;;;1.17;0.30;;;;;;;45.08;3.72;97375.84;6105592;29;20040;-69
2022/09/20 08:32:01;;;;;;;1.73;0.30;;;;;;;44.73;3.86;97369.06;6105702;29;20044;-68
2022/09/20 08:35:06;;;;;;;0.93;0.30;;;;;;;45.26;3.09;97362.97;6105947;29;20047;-68
2022/09/20 08:38:13;;;;;;;0.95;0.25;;;;;;;45.19;3.53;97359.81;6105488;29;20048;-69
2022/09/20 08:41:25;;;;;;;0.80;0.63;;;;;;;45.88;3.49;97365.94;6105337;29;20048;-69
2022/09/20 08:44:40;;;;;;;0.55;0.45;;;;;;;46.57;3.39;97362.75;6105387;29;20052;-68
2022/09/20 08:47:59;;;;;;;1.52;0.38;;;;;;;45.75;3.52;97350.16;6104979;29;20510;-68
2022/09/20 08:51:02;;;;;;;0.20;0.20;;;;;;;45.44;3.55;97366.75;6104557;29;20055;-68
2022/09/20 08:54:14;;;;;;;0.40;0.30;;;;;;;44.86;3.47;97340.50;6104727;29;20135;-68
2022/09/20 08:57:19;;;;;;;1.23;0.22;;;;;;;44.37;3.58;97339.28;6104536;29;20135;-69
2022/09/20 09:00:30;;;;;;;1.15;0.25;;;;;;;44.28;3.55;97335.56;6104706;29;20059;-69
2022/09/20 09:03:37;;;;;;;0.75;0.30;;;;;;;43.92;3.93;97333.41;6104920;29;20044;-70
2022/09/20 09:06:43;;;;;;;1.58;0.40;;;;;;;43.44;3.96;97334.44;6104594;29;20062;-70
2022/09/20 09:09:54;;;;;;;1.02;0.40;;;;;;;44.14;3.73;97330.81;6104827;29;20044;-69
2022/09/20 09:13:02;;;;;;;1.75;1.50;;;;;;;43.77;3.87;97308.69;6104516;29;20059;-69
2022/09/20 09:16:11;;;;;;;1.67;0.30;;;;;;;43.79;4.09;97328.63;6104388;29;20056;-69
2022/09/20 09:19:29;;;;;;;0.77;0.43;;;;;;;44.31;3.79;97321.88;6104375;29;20051;-69
2022/09/20 09:22:44;;;;;;;2.53;0.35;;;;;;;42.96;3.77;97319.91;6104263;29;20068;-70
2022/09/20 09:25:47;;;;;;;0.63;0.35;;;;;;;42.52;4.23;97301.63;6103399;29;20051;-69
2022/09/20 09:29:18;;;;;;;1.23;0.32;;;;;;;42.86;4.24;97300.66;6103104;29;20055;-69
2022/09/20 09:32:23;;;;;;;0.70;0.35;;;;;;;42.58;4.48;97317.06;6104110;29;20191;-68
2022/09/20 09:35:30;;;;;;;0.55;0.30;;;;;;;42.49;4.26;97293.91;6104001;29;20048;-68
2022/09/20 09:38:40;;;;;;;0.55;0.40;;;;;;;43.64;3.95;97305.59;6103599;29;20079;-68
2022/09/20 09:41:45;;;;;;;1.42;0.40;;;;;;;43.64;3.77;97294.50;6104094;29;20048;-68
2022/09/20 09:44:49;;;;;;;0.77;0.40;;;;;;;43.22;4.26;97287.16;6103988;29;20375;-68
2022/09/20 09:47:56;;;;;;;0.98;0.40;;;;;;;42.59;4.10;97296.56;6103907;29;20048;-69
2022/09/20 09:51:15;;;;;;;1.00;0.50;;;;;;;41.81;4.42;97289.38;6103687;29;20065;-68
2022/09/20 09:54:27;;;;;;;0.85;0.40;;;;;;;41.80;4.50;97285.78;6103468;29;20146;-68
2022/09/20 09:58:23;;;;;;;1.17;0.50;;;;;;;41.80;4.72;97283.03;6103328;29;20519;-68
2022/09/20 10:01:45;;;;;;;0.60;0.30;;;;;;;41.38;4.39;97284.47;6054350;29;20441;-68
2022/09/20 10:05:05;;;;;;;;;;;;;;;42.00;4.35;97283.97;6061859;29;20051;-68
2022/09/20 10:08:36;;;;;;;0.60;0.40;;;;;;;41.38;4.57;97272.59;6103308;29;19974;-69
2022/09/20 10:12:07;;;;;;;2.30;0.70;;;;;;;41.22;4.64;97280.16;6100159;29;20052;-69
2022/09/20 10:15:31;;;;;;;0.60;0.40;;;;;;;40.46;4.63;97262.09;6092892;29;20116;-69
2022/09/20 10:18:44;;;;;;;1.17;0.70;;;;;;;39.92;4.89;97263.63;6102883;29;20048;-69
2022/09/20 10:22:17;;;;;;;1.73;0.68;;;;;;;40.25;4.71;97273.19;6102864;29;20139;-69
2022/09/20 10:25:32;;;;;;;0.52;0.50;;;;;;;39.16;4.98;97256.19;6103295;29;20056;-69
2022/09/20 10:29:07;;;;;;;0.45;0.35;;;;;;;39.35;5.07;97259.25;6117603;29;20150;-69
2022/09/20 10:32:21;;;;;;;1.23;0.30;;;;;;;39.27;5.14;97257.84;6103073;29;20039;-69
2022/09/20 10:35:50;;;;;;;0.45;0.30;;;;;;;39.24;5.13;97256.47;6102624;29;20063;-69
2022/09/20 10:39:04;;;;;;;0.68;0.60;;;;;;;38.77;5.04;97254.72;6102569;29;20135;-70
2022/09/20 10:46:20;;;;;;;1.35;0.70;;;;;;;38.69;5.67;97258.00;6102276;29;20048;-69
2022/09/20 10:49:27;;;;;;;0.60;0.52;;;;;;;38.74;5.28;97255.25;6102417;29;20056;-69
2022/09/20 10:53:06;;;;;;;0.75;0.32;;;;;;;38.14;5.60;97252.00;6102104;29;20203;-69
2022/09/20 10:56:18;;;;;;;0.65;0.40;;;;;;;37.59;6.12;97244.22;6102199;29;20047;-70
2022/09/20 10:59:47;;;;;;;2.45;1.45;;;;;;;38.01;5.88;97243.41;6101951;29;20060;-69
2022/09/20 11:03:07;;;;;;;1.27;0.60;;;;;;;37.52;5.32;97234.28;6101768;29;20039;-69
2022/09/20 11:06:20;;;;;;;0.57;0.40;;;;;;;36.79;6.09;97235.81;6101999;29;20056;-69
2022/09/20 11:09:29;;;;;;;1.67;0.60;;;;;;;36.78;5.96;97239.63;6102003;29;20430;-69
2022/09/20 11:12:41;;;;;;;0.85;0.70;;;;;;;36.56;6.44;97232.28;6101967;29;20048;-69
2022/09/20 11:15:53;;;;;;;1.35;0.73;;;;;;;36.16;6.20;97222.47;6101659;29;20044;-70
2022/09/20 11:18:59;;;;;;;1.10;0.50;;;;;;;35.73;6.62;97226.78;6101513;29;20546;-69
2022/09/20 11:22:17;;;;;;;1.75;1.00;;;;;;;35.58;6.93;97218.34;6101672;29;20573;-69
2022/09/20 11:25:33;;;;;;;0.50;0.43;;;;;;;35.28;6.63;97219.50;6101686;29;20051;-69
2022/09/20 11:28:45;;;;;;;0.50;0.35;;;;;;;35.03;6.74;97211.69;6101459;29;20048;-69
2022/09/20 11:31:53;;;;;;;0.63;0.40;;;;;;;34.89;6.49;97206.78;6101704;29;20411;-69
2022/09/20 11:35:16;;;;;;;3.03;0.60;;;;;;;34.62;6.88;97207.38;6101540;29;20036;-68
2022/09/20 11:38:24;;;;;;;;;;;;;;;34.29;7.18;97214.41;6101969;29;20079;-69
2022/09/20 11:41:27;;;;;;;1.42;0.40;;;;;;;33.63;7.45;97199.28;6099947;29;19923;-68
2022/09/20 11:44:37;;;;;;;0.60;0.40;;;;;;;33.64;7.55;97198.25;6101546;29;20047;-70
2022/09/20 11:47:46;;;;;;;0.68;0.45;;;;;;;33.66;7.17;97201.53;6101322;29;20036;-69
2022/09/20 11:51:02;;;;;;;1.52;0.50;;;;;;;33.28;7.34;97191.94;6101597;29;20051;-69
2022/09/20 11:54:09;;;;;;;0.32;0.30;;;;;;;33.16;7.34;97189.19;6101207;29;20470;-70
2022/09/20 11:57:18;;;;;;;1.15;0.40;;;;;;;33.07;7.29;97207.81;6101349;29;20044;-69
2022/09/20 12:00:29;;;;;;;0.68;0.50;;;;;;;33.61;7.49;97188.63;6101157;29;20040;-69
2022/09/20 12:03:45;;;;;;;1.42;0.40;;;;;;;33.93;6.83;97189.03;6101395;29;20056;-70
2022/09/20 12:06:56;;;;;;;0.95;0.60;;;;;;;33.15;7.36;97183.97;6101479;29;20112;-70
2022/09/20 12:10:07;;;;;;;0.95;0.32;;;;;;;32.31;7.68;97186.69;6101237;29;20036;-70
2022/09/20 12:13:26;;;;;;;2.03;0.40;;;;;;;31.81;8.02;97187.66;6101222;29;20072;-70
2022/09/20 12:16:42;;;;;;;1.08;0.35;;;;;;;31.45;8.80;97183.03;6100920;29;20048;-68
2022/09/20 12:19:46;;;;;;;1.70;0.50;;;;;;;31.36;8.66;97190.66;6100374;29;20056;-69
2022/09/20 12:22:51;;;;;;;1.75;0.40;;;;;;;31.31;8.69;97193.22;6101214;29;20085;-70
2022/09/20 12:26:01;;;;;;;0.90;0.63;;;;;;;31.19;9.20;97179.47;6100335;29;20051;-69
2022/09/20 12:29:30;;;;;;;1.60;0.50;;;;;;;31.01;8.75;97187.59;6100657;29;20429;-69
2022/09/20 12:32:55;;;;;;;0.88;0.55;;;;;;;30.67;9.24;97175.28;6082544;29;20079;-70
2022/09/20 12:36:15;;;;;;;0.60;0.50;;;;;;;30.38;9.32;97177.56;6100686;29;20036;-69
2022/09/20 12:39:21;;;;;;;0.75;0.55;;;;;;;30.25;9.34;97183.06;6100842;29;20195;-68
2022/09/20 12:42:32;;;;;;;1.67;0.65;;;;;;;29.96;9.70;97169.81;6101007;29;20044;-69
2022/09/20 12:45:36;;;;;;;0.52;0.32;;;;;;;29.63;9.52;97174.53;6100579;29;20052;-69
2022/09/20 12:48:41;;;;;;;1.05;0.80;;;;;;;29.36;10.02;97171.84;6100582;29;20135;-69
2022/09/20 12:55:26;;;;;;;0.63;0.30;;;;;;;28.94;10.77;97171.22;6099904;29;20056;-70
2022/09/20 12:58:32;;;;;;;1.45;0.70;;;;;;;28.87;10.96;97173.94;6098317;29;20052;-69
2022/09/20 13:01:42;;;;;;;0.70;0.50;;;;;;;28.62;11.45;97179.13;6103380;29;20467;-69
2022/09/20 13:04:54;;;;;;;0.90;0.60;;;;;;;28.47;11.44;97174.94;6104690;29;20143;-69
2022/09/20 13:08:01;;;;;;;1.15;0.70;;;;;;;28.24;11.72;97180.69;6104761;29;20273;-69
2022/09/20 13:11:05;;;;;;;2.35;0.90;;;;;;;28.04;11.86;97175.19;6104370;29;20131;-69
2022/09/20 13:14:21;;;;;;;2.80;0.60;;;;;;;27.85;12.03;97176.78;6104253;29;20138;-71
2022/09/20 13:17:30;;;;;;;0.80;0.60;;;;;;;27.54;12.32;97175.34;6104114;29;20048;-70
2022/09/20 13:20:40;;;;;;;1.48;0.73;;;;;;;27.19;12.64;97175.34;6104179;29;20047;-70
2022/09/20 13:23:53;;;;;;;0.80;0.47;;;;;;;26.88;12.73;97181.94;6104408;29;20227;-69
2022/09/20 13:27:05;;;;;;;1.48;0.38;;;;;;;26.34;13.47;97168.94;6104217;29;20050;-69
2022/09/20 13:30:16;;;;;;;1.98;0.50;;;;;;;25.94;14.09;97173.06;6103877;29;20426;-70
2022/09/20 13:33:23;;;;;;;1.50;0.60;;;;;;;25.68;14.21;97174.38;6104186;29;20059;-70
2022/09/20 13:36:30;;;;;;;1.58;0.50;;;;;;;25.38;14.56;97178.91;6104161;29;20047;-70
2022/09/20 13:39:36;;;;;;;3.35;0.80;;;;;;;25.03;14.53;97192.03;6103717;29;20100;-70
2022/09/20 13:42:37;;;;;;;0.73;0.68;;;;;;;24.75;15.13;97193.66;6103583;29;20056;-71
2022/09/20 13:45:52;;;;;;;1.38;0.80;;;;;;;24.48;15.21;97186.94;6103634;29;20051;-70
2022/09/20 13:49:08;;;;;;;1.42;0.68;;;;;;;24.25;15.65;97192.28;6103915;29;20048;-69
2022/09/20 13:52:24;;;;;;;0.60;0.50;;;;;;;23.98;15.37;97186.41;6103719;29;20056;-69
2022/09/20 13:55:30;;;;;;;2.83;1.08;;;;;;;23.71;15.74;97187.69;6103693;29;20154;-69
2022/09/20 13:58:36;;;;;;;2.33;1.02;;;;;;;23.51;15.78;97187.22;6103490;29;20048;-69
2022/09/20 14:01:43;;;;;;;1.60;1.00;;;;;;;23.28;15.85;97190.66;6103426;29;20076;-70
2022/09/20 14:04:45;;;;;;;2.22;0.90;;;;;;;23.10;16.03;97181.97;6101215;29;20062;-70
2022/09/20 14:07:47;;;;;;;2.15;1.05;;;;;;;23.00;15.97;97189.38;6102176;29;20507;-69
2022/09/20 14:11:06;;;;;;;1.38;1.00;;;;;;;22.93;16.09;97193.69;6102891;29;20055;-70
2022/09/20 14:14:14;;;;;;;2.70;0.98;;;;;;;22.79;15.97;97190.72;6102570;29;20060;-69
2022/09/20 14:17:19;;;;;;;1.73;0.85;;;;;;;22.66;15.97;97193.03;6103325;29;20430;-69
2022/09/20 14:20:25;;;;;;;1.05;0.85;;;;;;;22.50;15.88;97184.97;6103294;29;20084;-69
2022/09/20 14:23:29;;;;;;;1.00;0.90;;;;;;;22.39;15.82;97189.69;6117665;29;20036;-70
2022/09/20 14:26:35;;;;;;;4.00;1.10;;;;;;;22.29;15.74;97189.00;6102654;29;20044;-69
2022/09/20 14:29:41;;;;;;;1.48;0.90;;;;;;;22.17;15.82;97192.97;6102637;29;20042;-69
2022/09/20 14:32:50;;;;;;;1.33;0.70;;;;;;;22.07;15.83;97189.59;6102635;29;20044;-70
2022/09/20 14:35:52;;;;;;;0.93;0.63;;;;;;;22.08;16.01;97191.25;6102569;29;20156;-69
2022/09/20 14:39:01;;;;;;;1.83;0.70;;;;;;;21.85;15.89;97189.19;6102321;29;20044;-70
2022/09/20 14:42:03;;;;;;;1.77;0.77;;;;;;;21.82;15.70;97192.19;6102416;29;20051;-70
2022/09/20 14:45:06;;;;;;;1.08;0.70;;;;;;;21.72;16.01;97202.22;6101846;29;20544;-70
2022/09/20 14:48:13;;;;;;;0.93;0.60;;;;;;;21.65;15.73;97179.72;6101177;29;20052;-69
2022/09/20 14:51:15;;;;;;;1.25;0.60;;;;;;;21.59;16.01;97191.09;6102358;29;20310;-69
2022/09/20 14:54:26;;;;;;;1.50;0.88;;;;;;;21.52;15.88;97190.91;6102040;29;20135;-70
2022/09/20 14:57:31;;;;;;;1.45;0.80;;;;;;;21.42;15.95;97200.88;6102283;29;20048;-69
2022/09/20 15:00:49;;;;;;;2.45;0.80;;;;;;;21.26;16.22;97212.31;6101816;29;20039;-69
2022/09/20 15:03:52;;;;;;;1.23;0.90;;;;;;;21.14;16.31;97205.53;6101914;29;20056;-68
2022/09/20 15:07:02;;;;;;;3.90;2.30;;;;;;;21.03;16.80;97211.97;6102215;29;20506;-69
2022/09/20 15:10:14;;;;;;;2.83;2.17;;;;;;;20.82;16.90;97210.50;6101721;29;20122;-70
2022/09/20 15:13:17;;;;;;;5.03;1.88;;;;;;;20.68;16.83;97202.19;6101817;29;20060;-69
2022/09/20 15:16:19;;;;;;;3.25;1.98;;;;;;;20.57;17.11;97209.47;6101864;29;20426;-69
2022/09/20 15:19:23;;;;;;;5.82;2.42;;;;;;;20.52;17.15;97218.91;6102008;29;20040;-70
2022/09/20 15:22:28;;;;;;;2.42;1.60;;;;;;;20.39;17.78;97219.28;6101145;29;20422;-70
2022/09/20 15:25:33;;;;;;;2.60;1.70;;;;;;;20.08;18.07;97216.97;6101669;29;20534;-70
2022/09/20 15:28:39;;;;;;;1.73;1.40;;;;;;;19.86;17.96;97215.56;6101591;29;20056;-69
2022/09/20 15:31:40;;;;;;;1.88;1.42;;;;;;;19.79;18.40;97221.63;6101555;29;20049;-68